sensor_id;sensor_type;location;lat;lon;timestamp;pressure;altitude;pressure_sealevel;temperature;humidity
3748;BME280;1889;50.058;8.688;2023-01-29T00:00:38;101576.44;;;7.01;45.61
3748;BME280;1889;50.058;8.688;2023-01-29T00:03:07;101567.89;;;7.09;45.52
3748;BME280;1889;50.058;8.688;2023-01-29T00:05:37;101570.17;;;6.93;45.33
3748;BME280;1889;50.058;8.688;2023-01-29T00:08:06;101579.86;;;6.19;45.95
3748;BME280;1889;50.058;8.688;2023-01-29T00:10:35;101579.33;;;6.33;46.18
3748;BME280;1889;50.058;8.688;2023-01-29T00:13:04;101586.08;;;5.88;46.30
3748;BME280;1889;50.058;8.688;2023-01-29T00:15:34;101584.12;;;5.96;46.49
3748;BME280;1889;50.058;8.688;2023-01-29T00:18:03;101586.79;;;6.35;46.10
3748;BME280;1889;50.058;8.688;2023-01-29T00:20:33;101583.55;;;6.45;46.06
3748;BME280;1889;50.058;8.688;2023-01-29T00:23:02;101585.13;;;6.78;45.40
3748;BME280;1889;50.058;8.688;2023-01-29T00:25:31;101590.55;;;6.10;46.38
3748;BME280;1889;50.058;8.688;2023-01-29T00:28:01;101591.34;;;6.25;46.40
3748;BME280;1889;50.058;8.688;2023-01-29T00:30:30;101594.50;;;6.48;46.30
3748;BME280;1889;50.058;8.688;2023-01-29T00:33:00;101603.36;;;6.75;45.90
3748;BME280;1889;50.058;8.688;2023-01-29T00:35:29;101605.88;;;6.89;45.54
3748;BME280;1889;50.058;8.688;2023-01-29T00:37:59;101612.11;;;6.96;45.52
3748;BME280;1889;50.058;8.688;2023-01-29T00:40:28;101603.37;;;6.95;45.62
3748;BME280;1889;50.058;8.688;2023-01-29T00:42:59;101604.56;;;6.89;45.64
3748;BME280;1889;50.058;8.688;2023-01-29T00:45:45;101606.07;;;6.59;45.27
3748;BME280;1889;50.058;8.688;2023-01-29T00:48:15;101602.09;;;6.37;45.39
3748;BME280;1889;50.058;8.688;2023-01-29T00:50:44;101596.28;;;6.50;45.83
3748;BME280;1889;50.058;8.688;2023-01-29T00:53:13;101595.44;;;6.51;45.80
3748;BME280;1889;50.058;8.688;2023-01-29T00:55:44;101592.81;;;6.70;45.71
3748;BME280;1889;50.058;8.688;2023-01-29T00:58:13;101587.55;;;6.69;45.54
3748;BME280;1889;50.058;8.688;2023-01-29T01:00:44;101584.55;;;6.52;45.59
3748;BME280;1889;50.058;8.688;2023-01-29T01:03:14;101589.39;;;6.73;45.54
3748;BME280;1889;50.058;8.688;2023-01-29T01:05:43;101582.63;;;6.84;45.46
3748;BME280;1889;50.058;8.688;2023-01-29T01:08:12;101581.02;;;6.90;45.34
3748;BME280;1889;50.058;8.688;2023-01-29T01:11:02;101580.08;;;6.67;45.42
3748;BME280;1889;50.058;8.688;2023-01-29T01:13:32;101572.91;;;6.57;45.12
3748;BME280;1889;50.058;8.688;2023-01-29T01:16:10;101577.77;;;6.40;45.47
3748;BME280;1889;50.058;8.688;2023-01-29T01:18:40;101573.76;;;6.37;45.65
3748;BME280;1889;50.058;8.688;2023-01-29T01:21:09;101570.38;;;6.61;45.45
3748;BME280;1889;50.058;8.688;2023-01-29T01:23:38;101575.97;;;6.78;45.41
3748;BME280;1889;50.058;8.688;2023-01-29T01:26:08;101578.39;;;6.69;45.17
3748;BME280;1889;50.058;8.688;2023-01-29T01:28:38;101573.88;;;6.23;45.48
3748;BME280;1889;50.058;8.688;2023-01-29T01:31:11;101582.00;;;6.16;45.88
3748;BME280;1889;50.058;8.688;2023-01-29T01:33:41;101576.08;;;6.62;44.98
3748;BME280;1889;50.058;8.688;2023-01-29T01:36:10;101564.46;;;6.70;45.03
3748;BME280;1889;50.058;8.688;2023-01-29T01:38:41;101564.04;;;6.70;45.12
3748;BME280;1889;50.058;8.688;2023-01-29T01:41:20;101554.97;;;6.75;44.85
3748;BME280;1889;50.058;8.688;2023-01-29T01:46:27;101550.73;;;6.80;44.58
3748;BME280;1889;50.058;8.688;2023-01-29T01:49:00;101543.96;;;6.91;44.34
3748;BME280;1889;50.058;8.688;2023-01-29T01:51:31;101539.84;;;7.02;43.93
3748;BME280;1889;50.058;8.688;2023-01-29T01:54:04;101534.11;;;7.23;42.80
3748;BME280;1889;50.058;8.688;2023-01-29T01:56:36;101531.70;;;7.10;43.23
3748;BME280;1889;50.058;8.688;2023-01-29T01:59:09;101535.63;;;7.10;42.74
3748;BME280;1889;50.058;8.688;2023-01-29T02:01:41;101532.37;;;6.78;43.64
3748;BME280;1889;50.058;8.688;2023-01-29T02:04:14;101527.64;;;6.81;43.89
3748;BME280;1889;50.058;8.688;2023-01-29T02:07:02;101525.99;;;6.86;43.78
3748;BME280;1889;50.058;8.688;2023-01-29T02:10:13;101525.84;;;6.78;44.07
3748;BME280;1889;50.058;8.688;2023-01-29T02:12:37;101526.65;;;6.76;44.27
3748;BME280;1889;50.058;8.688;2023-01-29T02:15:07;101525.30;;;6.73;44.42
3748;BME280;1889;50.058;8.688;2023-01-29T02:17:37;101522.07;;;6.66;44.58
3748;BME280;1889;50.058;8.688;2023-01-29T02:23:05;101525.18;;;6.09;45.27
3748;BME280;1889;50.058;8.688;2023-01-29T02:25:53;101525.37;;;5.98;45.65
3748;BME280;1889;50.058;8.688;2023-01-29T02:28:44;101522.34;;;5.98;45.82
3748;BME280;1889;50.058;8.688;2023-01-29T02:34:26;101531.42;;;5.45;46.74
3748;BME280;1889;50.058;8.688;2023-01-29T02:37:11;101526.73;;;5.32;47.12
3748;BME280;1889;50.058;8.688;2023-01-29T02:39:48;101533.47;;;5.74;46.57
3748;BME280;1889;50.058;8.688;2023-01-29T02:45:11;101548.17;;;5.70;46.69
3748;BME280;1889;50.058;8.688;2023-01-29T02:47:59;101548.13;;;5.34;46.80
3748;BME280;1889;50.058;8.688;2023-01-29T02:53:21;101556.03;;;4.18;49.89
3748;BME280;1889;50.058;8.688;2023-01-29T02:56:12;101567.58;;;4.26;49.84
3748;BME280;1889;50.058;8.688;2023-01-29T02:58:58;101577.64;;;4.42;49.80
3748;BME280;1889;50.058;8.688;2023-01-29T03:01:18;101571.71;;;4.76;49.07
3748;BME280;1889;50.058;8.688;2023-01-29T03:03:52;101573.25;;;5.31;48.08
3748;BME280;1889;50.058;8.688;2023-01-29T03:06:32;101562.13;;;5.38;48.08
3748;BME280;1889;50.058;8.688;2023-01-29T03:09:05;101563.03;;;5.56;47.76
3748;BME280;1889;50.058;8.688;2023-01-29T03:11:38;101570.37;;;5.70;47.62
3748;BME280;1889;50.058;8.688;2023-01-29T03:14:15;101554.61;;;5.85;47.54
3748;BME280;1889;50.058;8.688;2023-01-29T03:16:47;101552.44;;;6.01;47.41
3748;BME280;1889;50.058;8.688;2023-01-29T03:19:31;101539.26;;;6.14;47.18
3748;BME280;1889;50.058;8.688;2023-01-29T03:22:03;101541.75;;;6.28;46.92
3748;BME280;1889;50.058;8.688;2023-01-29T03:24:49;101544.83;;;5.92;47.19
3748;BME280;1889;50.058;8.688;2023-01-29T03:27:39;101553.84;;;5.54;47.77
3748;BME280;1889;50.058;8.688;2023-01-29T03:30:29;101564.38;;;4.93;48.88
3748;BME280;1889;50.058;8.688;2023-01-29T03:33:19;101561.25;;;5.06;48.85
3748;BME280;1889;50.058;8.688;2023-01-29T03:35:55;101560.77;;;5.36;48.49
3748;BME280;1889;50.058;8.688;2023-01-29T03:38:26;101566.98;;;5.24;48.64
3748;BME280;1889;50.058;8.688;2023-01-29T03:41:09;101573.78;;;5.04;49.42
3748;BME280;1889;50.058;8.688;2023-01-29T03:46:20;101571.20;;;5.35;48.82
3748;BME280;1889;50.058;8.688;2023-01-29T03:51:59;101562.56;;;5.55;48.62
3748;BME280;1889;50.058;8.688;2023-01-29T03:54:38;101558.56;;;5.67;48.66
3748;BME280;1889;50.058;8.688;2023-01-29T03:57:20;101549.48;;;5.70;48.63
3748;BME280;1889;50.058;8.688;2023-01-29T04:02:54;101545.70;;;5.76;48.49
3748;BME280;1889;50.058;8.688;2023-01-29T04:05:19;101560.48;;;5.74;48.60
3748;BME280;1889;50.058;8.688;2023-01-29T04:07:51;101562.12;;;4.75;49.68
3748;BME280;1889;50.058;8.688;2023-01-29T04:10:24;101563.23;;;4.55;50.44
3748;BME280;1889;50.058;8.688;2023-01-29T04:12:59;101570.41;;;4.76;49.97
3748;BME280;1889;50.058;8.688;2023-01-29T04:15:31;101569.66;;;4.96;49.62
3748;BME280;1889;50.058;8.688;2023-01-29T04:18:01;101558.02;;;5.15;49.31
3748;BME280;1889;50.058;8.688;2023-01-29T04:20:31;101546.70;;;5.47;48.60
3748;BME280;1889;50.058;8.688;2023-01-29T04:23:01;101534.69;;;5.71;47.93
3748;BME280;1889;50.058;8.688;2023-01-29T04:25:37;101529.14;;;5.76;47.51
3748;BME280;1889;50.058;8.688;2023-01-29T04:28:12;101523.59;;;5.80;47.58
3748;BME280;1889;50.058;8.688;2023-01-29T04:36:09;101524.67;;;5.70;47.77
3748;BME280;1889;50.058;8.688;2023-01-29T04:41:41;101492.62;;;5.78;47.86
3748;BME280;1889;50.058;8.688;2023-01-29T04:44:20;101509.23;;;4.65;48.91
3748;BME280;1889;50.058;8.688;2023-01-29T04:49:30;101543.05;;;3.66;51.95
3748;BME280;1889;50.058;8.688;2023-01-29T04:57:57;101541.23;;;4.31;50.59
3748;BME280;1889;50.058;8.688;2023-01-29T05:00:27;101551.98;;;4.56;50.26
3748;BME280;1889;50.058;8.688;2023-01-29T05:02:59;101550.64;;;4.26;50.84
3748;BME280;1889;50.058;8.688;2023-01-29T05:05:29;101564.14;;;4.41;50.63
3748;BME280;1889;50.058;8.688;2023-01-29T05:07:59;101555.80;;;4.67;50.27
3748;BME280;1889;50.058;8.688;2023-01-29T05:10:28;101550.30;;;4.88;50.04
3748;BME280;1889;50.058;8.688;2023-01-29T05:13:00;101548.37;;;5.12;49.53
3748;BME280;1889;50.058;8.688;2023-01-29T05:15:38;101539.44;;;5.20;49.44
3748;BME280;1889;50.058;8.688;2023-01-29T05:18:08;101528.83;;;5.29;49.27
3748;BME280;1889;50.058;8.688;2023-01-29T05:20:39;101532.26;;;5.44;49.03
3748;BME280;1889;50.058;8.688;2023-01-29T05:23:17;101533.46;;;5.40;49.09
3748;BME280;1889;50.058;8.688;2023-01-29T05:25:48;101536.61;;;5.26;49.27
3748;BME280;1889;50.058;8.688;2023-01-29T05:28:18;101537.61;;;5.16;49.51
3748;BME280;1889;50.058;8.688;2023-01-29T05:30:49;101525.66;;;5.24;49.46
3748;BME280;1889;50.058;8.688;2023-01-29T05:33:20;101521.22;;;5.21;49.41
3748;BME280;1889;50.058;8.688;2023-01-29T05:35:50;101526.08;;;5.08;49.55
3748;BME280;1889;50.058;8.688;2023-01-29T05:38:20;101512.27;;;5.12;49.51
3748;BME280;1889;50.058;8.688;2023-01-29T05:40:50;101512.84;;;5.33;49.33
3748;BME280;1889;50.058;8.688;2023-01-29T05:43:22;101520.97;;;5.45;49.26
3748;BME280;1889;50.058;8.688;2023-01-29T05:45:57;101523.66;;;5.31;49.41
3748;BME280;1889;50.058;8.688;2023-01-29T05:48:27;101537.09;;;4.82;49.85
3748;BME280;1889;50.058;8.688;2023-01-29T05:51:02;101543.19;;;4.10;51.35
3748;BME280;1889;50.058;8.688;2023-01-29T05:53:32;101537.80;;;4.32;51.21
3748;BME280;1889;50.058;8.688;2023-01-29T05:56:03;101543.32;;;4.57;50.90
3748;BME280;1889;50.058;8.688;2023-01-29T05:58:34;101547.47;;;4.80;50.50
3748;BME280;1889;50.058;8.688;2023-01-29T06:01:12;101540.64;;;4.99;50.12
3748;BME280;1889;50.058;8.688;2023-01-29T06:03:42;101537.92;;;5.11;49.93
3748;BME280;1889;50.058;8.688;2023-01-29T06:06:12;101529.83;;;5.17;49.96
3748;BME280;1889;50.058;8.688;2023-01-29T06:08:41;101524.66;;;5.19;49.96
3748;BME280;1889;50.058;8.688;2023-01-29T06:11:12;101527.13;;;4.98;50.04
3748;BME280;1889;50.058;8.688;2023-01-29T06:13:41;101531.91;;;4.68;50.32
3748;BME280;1889;50.058;8.688;2023-01-29T06:16:12;101538.45;;;4.53;50.80
3748;BME280;1889;50.058;8.688;2023-01-29T06:18:42;101535.25;;;4.78;50.41
3748;BME280;1889;50.058;8.688;2023-01-29T06:21:12;101538.97;;;4.72;50.58
3748;BME280;1889;50.058;8.688;2023-01-29T06:23:41;101544.38;;;4.78;50.59
3748;BME280;1889;50.058;8.688;2023-01-29T06:26:12;101538.29;;;5.09;50.19
3748;BME280;1889;50.058;8.688;2023-01-29T06:28:43;101532.64;;;5.25;50.00
3748;BME280;1889;50.058;8.688;2023-01-29T06:31:13;101532.06;;;5.36;49.95
3748;BME280;1889;50.058;8.688;2023-01-29T06:33:42;101523.83;;;5.54;49.68
3748;BME280;1889;50.058;8.688;2023-01-29T06:36:11;101525.70;;;5.60;49.62
3748;BME280;1889;50.058;8.688;2023-01-29T06:38:41;101520.09;;;5.62;49.69
3748;BME280;1889;50.058;8.688;2023-01-29T06:41:12;101515.11;;;5.54;49.77
3748;BME280;1889;50.058;8.688;2023-01-29T06:43:44;101510.58;;;5.64;49.69
3748;BME280;1889;50.058;8.688;2023-01-29T06:46:13;101509.70;;;5.63;49.71
3748;BME280;1889;50.058;8.688;2023-01-29T06:48:43;101512.59;;;5.57;49.81
3748;BME280;1889;50.058;8.688;2023-01-29T06:51:12;101508.86;;;5.64;49.63
3748;BME280;1889;50.058;8.688;2023-01-29T06:53:41;101517.84;;;5.41;49.83
3748;BME280;1889;50.058;8.688;2023-01-29T06:56:10;101514.39;;;5.09;50.30
3748;BME280;1889;50.058;8.688;2023-01-29T06:58:41;101519.19;;;5.10;50.45
3748;BME280;1889;50.058;8.688;2023-01-29T07:01:11;101531.46;;;3.96;52.75
3748;BME280;1889;50.058;8.688;2023-01-29T07:03:41;101532.47;;;3.47;54.36
3748;BME280;1889;50.058;8.688;2023-01-29T07:06:10;101537.16;;;3.98;52.80
3748;BME280;1889;50.058;8.688;2023-01-29T07:08:40;101536.08;;;4.18;52.31
3748;BME280;1889;50.058;8.688;2023-01-29T07:11:09;101537.12;;;4.38;51.83
3748;BME280;1889;50.058;8.688;2023-01-29T07:13:38;101549.38;;;4.70;51.02
3748;BME280;1889;50.058;8.688;2023-01-29T07:16:08;101560.20;;;4.84;50.68
3748;BME280;1889;50.058;8.688;2023-01-29T07:18:38;101556.34;;;4.85;50.63
3748;BME280;1889;50.058;8.688;2023-01-29T07:21:07;101564.59;;;5.01;50.39
3748;BME280;1889;50.058;8.688;2023-01-29T07:23:36;101566.73;;;4.99;50.30
3748;BME280;1889;50.058;8.688;2023-01-29T07:26:06;101567.45;;;4.94;50.11
3748;BME280;1889;50.058;8.688;2023-01-29T07:28:37;101561.83;;;5.12;49.85
3748;BME280;1889;50.058;8.688;2023-01-29T07:31:07;101568.80;;;5.27;49.71
3748;BME280;1889;50.058;8.688;2023-01-29T07:33:36;101558.67;;;5.39;49.52
3748;BME280;1889;50.058;8.688;2023-01-29T07:36:09;101556.84;;;5.35;49.54
3748;BME280;1889;50.058;8.688;2023-01-29T07:38:39;101561.23;;;5.37;49.52
3748;BME280;1889;50.058;8.688;2023-01-29T07:41:10;101566.77;;;5.32;49.01
3748;BME280;1889;50.058;8.688;2023-01-29T07:43:39;101570.95;;;4.94;50.05
3748;BME280;1889;50.058;8.688;2023-01-29T07:46:08;101570.80;;;5.06;49.96
3748;BME280;1889;50.058;8.688;2023-01-29T07:48:37;101568.92;;;5.00;50.09
3748;BME280;1889;50.058;8.688;2023-01-29T07:51:06;101566.83;;;5.18;49.98
3748;BME280;1889;50.058;8.688;2023-01-29T07:53:36;101554.66;;;5.36;49.73
3748;BME280;1889;50.058;8.688;2023-01-29T07:56:05;101544.52;;;5.47;49.43
3748;BME280;1889;50.058;8.688;2023-01-29T07:58:35;101527.22;;;5.50;49.41
3748;BME280;1889;50.058;8.688;2023-01-29T08:01:07;101523.49;;;5.58;49.17
3748;BME280;1889;50.058;8.688;2023-01-29T08:03:36;101530.96;;;5.61;49.04
3748;BME280;1889;50.058;8.688;2023-01-29T08:06:06;101526.62;;;5.62;49.06
3748;BME280;1889;50.058;8.688;2023-01-29T08:08:35;101528.48;;;4.84;49.77
3748;BME280;1889;50.058;8.688;2023-01-29T08:11:04;101537.25;;;4.72;50.45
3748;BME280;1889;50.058;8.688;2023-01-29T08:13:34;101549.81;;;4.85;50.22
3748;BME280;1889;50.058;8.688;2023-01-29T08:16:03;101549.09;;;4.91;49.95
3748;BME280;1889;50.058;8.688;2023-01-29T08:18:33;101552.52;;;4.74;50.72
3748;BME280;1889;50.058;8.688;2023-01-29T08:21:03;101569.05;;;3.91;52.75
3748;BME280;1889;50.058;8.688;2023-01-29T08:23:32;101583.56;;;3.70;53.88
3748;BME280;1889;50.058;8.688;2023-01-29T08:26:02;101583.20;;;4.12;52.99
3748;BME280;1889;50.058;8.688;2023-01-29T08:28:32;101569.02;;;4.59;51.74
3748;BME280;1889;50.058;8.688;2023-01-29T08:31:02;101558.59;;;4.59;51.23
3748;BME280;1889;50.058;8.688;2023-01-29T08:33:32;101546.61;;;4.21;51.50
3748;BME280;1889;50.058;8.688;2023-01-29T08:36:01;101536.70;;;4.68;51.27
3748;BME280;1889;50.058;8.688;2023-01-29T08:38:30;101544.58;;;4.55;50.55
3748;BME280;1889;50.058;8.688;2023-01-29T08:40:59;101541.16;;;4.72;50.47
3748;BME280;1889;50.058;8.688;2023-01-29T08:43:29;101537.93;;;4.81;50.84
3748;BME280;1889;50.058;8.688;2023-01-29T08:45:58;101551.61;;;5.04;50.35
3748;BME280;1889;50.058;8.688;2023-01-29T08:48:27;101560.05;;;4.93;49.99
3748;BME280;1889;50.058;8.688;2023-01-29T08:50:58;101562.23;;;4.94;50.14
3748;BME280;1889;50.058;8.688;2023-01-29T08:53:28;101548.03;;;4.40;50.80
3748;BME280;1889;50.058;8.688;2023-01-29T08:55:57;101542.41;;;4.41;51.09
3748;BME280;1889;50.058;8.688;2023-01-29T08:58:26;101557.62;;;3.86;51.42
3748;BME280;1889;50.058;8.688;2023-01-29T09:00:56;101562.60;;;4.19;51.46
3748;BME280;1889;50.058;8.688;2023-01-29T09:03:26;101560.93;;;4.94;49.97
3748;BME280;1889;50.058;8.688;2023-01-29T09:05:55;101565.19;;;4.76;49.85
3748;BME280;1889;50.058;8.688;2023-01-29T09:08:25;101558.59;;;4.31;50.47
3748;BME280;1889;50.058;8.688;2023-01-29T09:10:54;101560.28;;;4.29;50.57
3748;BME280;1889;50.058;8.688;2023-01-29T09:13:25;101570.22;;;4.56;50.41
3748;BME280;1889;50.058;8.688;2023-01-29T09:15:59;101577.95;;;4.97;49.63
3748;BME280;1889;50.058;8.688;2023-01-29T09:18:29;101591.29;;;4.62;50.03
3748;BME280;1889;50.058;8.688;2023-01-29T09:20:58;101603.16;;;4.11;50.55
3748;BME280;1889;50.058;8.688;2023-01-29T09:23:30;101609.14;;;3.57;52.13
3748;BME280;1889;50.058;8.688;2023-01-29T09:25:59;101608.75;;;3.59;52.26
3748;BME280;1889;50.058;8.688;2023-01-29T09:28:28;101612.50;;;3.54;52.51
3748;BME280;1889;50.058;8.688;2023-01-29T09:31:00;101616.23;;;3.50;52.12
3748;BME280;1889;50.058;8.688;2023-01-29T09:33:29;101618.22;;;2.85;53.76
3748;BME280;1889;50.058;8.688;2023-01-29T09:36:01;101613.29;;;3.15;53.94
3748;BME280;1889;50.058;8.688;2023-01-29T09:38:30;101615.56;;;3.19;53.16
3748;BME280;1889;50.058;8.688;2023-01-29T09:44:02;101630.30;;;2.50;54.76
3748;BME280;1889;50.058;8.688;2023-01-29T09:46:42;101626.61;;;3.48;52.68
3748;BME280;1889;50.058;8.688;2023-01-29T09:49:23;101617.82;;;3.70;52.10
3748;BME280;1889;50.058;8.688;2023-01-29T09:51:56;101616.48;;;3.81;51.65
3748;BME280;1889;50.058;8.688;2023-01-29T09:54:41;101606.25;;;4.27;51.13
3748;BME280;1889;50.058;8.688;2023-01-29T09:57:08;101611.46;;;4.14;51.46
3748;BME280;1889;50.058;8.688;2023-01-29T09:59:38;101599.47;;;4.60;50.42
3748;BME280;1889;50.058;8.688;2023-01-29T10:05:09;101614.10;;;4.01;50.82
3748;BME280;1889;50.058;8.688;2023-01-29T10:07:49;101611.80;;;4.10;51.22
3748;BME280;1889;50.058;8.688;2023-01-29T10:13:20;101597.70;;;3.91;51.59
3748;BME280;1889;50.058;8.688;2023-01-29T10:15:57;101589.96;;;4.34;50.89
3748;BME280;1889;50.058;8.688;2023-01-29T10:18:41;101582.83;;;3.87;51.85
3748;BME280;1889;50.058;8.688;2023-01-29T10:21:18;101565.70;;;4.22;51.39
3748;BME280;1889;50.058;8.688;2023-01-29T10:23:46;101564.38;;;5.09;49.46
3748;BME280;1889;50.058;8.688;2023-01-29T10:26:20;101561.41;;;5.28;49.25
3748;BME280;1889;50.058;8.688;2023-01-29T10:28:50;101552.59;;;4.47;49.72
3748;BME280;1889;50.058;8.688;2023-01-29T10:31:32;101547.88;;;4.64;49.85
3748;BME280;1889;50.058;8.688;2023-01-29T10:34:18;101543.33;;;5.34;48.34
3748;BME280;1889;50.058;8.688;2023-01-29T10:36:48;101536.53;;;5.41;47.84
3748;BME280;1889;50.058;8.688;2023-01-29T10:39:25;101534.82;;;5.75;47.10
3748;BME280;1889;50.058;8.688;2023-01-29T10:44:44;101540.74;;;5.03;48.90
3748;BME280;1889;50.058;8.688;2023-01-29T10:53:15;101520.20;;;6.01;47.36
3748;BME280;1889;50.058;8.688;2023-01-29T10:58:37;101508.39;;;6.37;46.15
3748;BME280;1889;50.058;8.688;2023-01-29T11:01:07;101497.75;;;6.48;45.48
3748;BME280;1889;50.058;8.688;2023-01-29T11:03:36;101495.03;;;6.23;45.78
3748;BME280;1889;50.058;8.688;2023-01-29T11:06:32;101494.48;;;6.38;45.56
3748;BME280;1889;50.058;8.688;2023-01-29T11:09:17;101493.14;;;6.18;45.76
3748;BME280;1889;50.058;8.688;2023-01-29T11:11:56;101486.59;;;6.36;46.13
3748;BME280;1889;50.058;8.688;2023-01-29T11:14:37;101484.41;;;5.80;47.24
3748;BME280;1889;50.058;8.688;2023-01-29T11:17:04;101479.44;;;5.89;46.27
3748;BME280;1889;50.058;8.688;2023-01-29T11:19:43;101476.14;;;4.33;48.70
3748;BME280;1889;50.058;8.688;2023-01-29T11:22:19;101474.15;;;4.24;49.94
3748;BME280;1889;50.058;8.688;2023-01-29T11:24:45;101465.44;;;5.16;47.90
3748;BME280;1889;50.058;8.688;2023-01-29T11:27:25;101472.89;;;4.87;48.22
3748;BME280;1889;50.058;8.688;2023-01-29T11:29:56;101463.17;;;5.47;47.46
3748;BME280;1889;50.058;8.688;2023-01-29T11:32:28;101456.47;;;5.75;46.81
3748;BME280;1889;50.058;8.688;2023-01-29T11:37:47;101452.49;;;6.30;45.50
3748;BME280;1889;50.058;8.688;2023-01-29T11:40:28;101451.33;;;6.18;45.75
3748;BME280;1889;50.058;8.688;2023-01-29T11:42:51;101444.21;;;6.10;45.96
3748;BME280;1889;50.058;8.688;2023-01-29T11:45:28;101435.73;;;6.42;45.80
3748;BME280;1889;50.058;8.688;2023-01-29T11:47:59;101435.69;;;6.39;46.02
3748;BME280;1889;50.058;8.688;2023-01-29T11:50:30;101432.42;;;6.51;45.82
3748;BME280;1889;50.058;8.688;2023-01-29T11:53:00;101426.91;;;6.59;45.08
3748;BME280;1889;50.058;8.688;2023-01-29T11:55:32;101431.58;;;5.72;46.25
3748;BME280;1889;50.058;8.688;2023-01-29T11:58:15;101428.50;;;6.29;46.05
3748;BME280;1889;50.058;8.688;2023-01-29T12:00:45;101421.41;;;6.67;45.52
3748;BME280;1889;50.058;8.688;2023-01-29T12:03:33;101413.20;;;6.94;44.64
3748;BME280;1889;50.058;8.688;2023-01-29T12:06:20;101415.55;;;6.35;45.50
3748;BME280;1889;50.058;8.688;2023-01-29T12:08:59;101408.31;;;6.44;44.64
3748;BME280;1889;50.058;8.688;2023-01-29T12:11:31;101406.74;;;6.30;45.13
3748;BME280;1889;50.058;8.688;2023-01-29T12:14:05;101398.32;;;6.03;45.43
3748;BME280;1889;50.058;8.688;2023-01-29T12:16:46;101393.44;;;6.41;45.05
3748;BME280;1889;50.058;8.688;2023-01-29T12:19:39;101388.25;;;5.99;46.02
3748;BME280;1889;50.058;8.688;2023-01-29T12:25:07;101377.25;;;6.37;45.42
3748;BME280;1889;50.058;8.688;2023-01-29T12:27:42;101373.91;;;6.44;44.94
3748;BME280;1889;50.058;8.688;2023-01-29T12:30:23;101375.30;;;6.27;45.68
3748;BME280;1889;50.058;8.688;2023-01-29T12:36:00;101364.62;;;6.15;45.97
3748;BME280;1889;50.058;8.688;2023-01-29T12:38:24;101356.45;;;6.43;45.16
3748;BME280;1889;50.058;8.688;2023-01-29T12:41:05;101347.44;;;5.87;45.85
3748;BME280;1889;50.058;8.688;2023-01-29T12:43:47;101348.25;;;6.03;46.02
3748;BME280;1889;50.058;8.688;2023-01-29T12:46:32;101341.80;;;6.06;45.82
3748;BME280;1889;50.058;8.688;2023-01-29T12:49:05;101340.58;;;6.58;44.62
3748;BME280;1889;50.058;8.688;2023-01-29T12:51:36;101347.74;;;6.21;44.61
3748;BME280;1889;50.058;8.688;2023-01-29T12:54:08;101345.44;;;6.15;45.66
3748;BME280;1889;50.058;8.688;2023-01-29T12:56:45;101335.45;;;6.62;44.72
3748;BME280;1889;50.058;8.688;2023-01-29T12:59:30;101336.02;;;6.46;44.66
3748;BME280;1889;50.058;8.688;2023-01-29T13:04:41;101332.88;;;6.42;45.26
3748;BME280;1889;50.058;8.688;2023-01-29T13:07:22;101325.61;;;6.72;44.60
3748;BME280;1889;50.058;8.688;2023-01-29T13:09:53;101314.06;;;6.86;44.24
3748;BME280;1889;50.058;8.688;2023-01-29T13:12:24;101310.37;;;6.50;44.59
3748;BME280;1889;50.058;8.688;2023-01-29T13:14:59;101301.04;;;6.89;44.08
3748;BME280;1889;50.058;8.688;2023-01-29T13:17:45;101303.95;;;6.81;43.76
3748;BME280;1889;50.058;8.688;2023-01-29T13:20:25;101304.66;;;6.71;44.24
3748;BME280;1889;50.058;8.688;2023-01-29T13:22:57;101291.96;;;5.57;46.30
3748;BME280;1889;50.058;8.688;2023-01-29T13:25:26;101295.58;;;6.27;45.34
3748;BME280;1889;50.058;8.688;2023-01-29T13:27:55;101291.05;;;6.42;44.91
3748;BME280;1889;50.058;8.688;2023-01-29T13:30:45;101285.53;;;6.48;45.07
3748;BME280;1889;50.058;8.688;2023-01-29T13:33:22;101293.70;;;6.68;44.67
3748;BME280;1889;50.058;8.688;2023-01-29T13:35:46;101293.59;;;6.37;45.36
3748;BME280;1889;50.058;8.688;2023-01-29T13:38:28;101292.13;;;6.53;44.73
3748;BME280;1889;50.058;8.688;2023-01-29T13:41:03;101290.56;;;6.63;44.72
3748;BME280;1889;50.058;8.688;2023-01-29T13:43:33;101296.97;;;6.55;44.79
3748;BME280;1889;50.058;8.688;2023-01-29T13:46:06;101291.41;;;6.37;45.41
3748;BME280;1889;50.058;8.688;2023-01-29T13:48:41;101290.45;;;6.10;46.01
3748;BME280;1889;50.058;8.688;2023-01-29T13:51:09;101284.48;;;6.17;45.87
3748;BME280;1889;50.058;8.688;2023-01-29T13:53:41;101276.54;;;6.59;45.29
3748;BME280;1889;50.058;8.688;2023-01-29T13:59:01;101282.33;;;6.65;45.52
3748;BME280;1889;50.058;8.688;2023-01-29T14:04:22;101267.36;;;6.84;44.90
3748;BME280;1889;50.058;8.688;2023-01-29T14:06:57;101265.86;;;7.00;44.70
3748;BME280;1889;50.058;8.688;2023-01-29T14:17:28;101247.83;;;6.90;44.32
3748;BME280;1889;50.058;8.688;2023-01-29T14:20:17;101246.13;;;6.66;45.86
3748;BME280;1889;50.058;8.688;2023-01-29T14:22:55;101249.17;;;6.64;45.13
3748;BME280;1889;50.058;8.688;2023-01-29T14:25:34;101263.96;;;5.90;46.17
3748;BME280;1889;50.058;8.688;2023-01-29T14:28:12;101268.66;;;6.33;46.07
3748;BME280;1889;50.058;8.688;2023-01-29T14:30:36;101262.56;;;6.09;45.93
3748;BME280;1889;50.058;8.688;2023-01-29T14:33:18;101265.88;;;6.22;46.48
3748;BME280;1889;50.058;8.688;2023-01-29T14:35:41;101255.68;;;6.62;45.89
3748;BME280;1889;50.058;8.688;2023-01-29T14:38:13;101255.98;;;7.10;45.00
3748;BME280;1889;50.058;8.688;2023-01-29T14:40:44;101253.97;;;6.92;44.60
3748;BME280;1889;50.058;8.688;2023-01-29T14:43:18;101248.30;;;7.20;44.67
3748;BME280;1889;50.058;8.688;2023-01-29T14:45:49;101240.57;;;7.00;45.19
3748;BME280;1889;50.058;8.688;2023-01-29T14:48:39;101239.83;;;6.53;46.03
3748;BME280;1889;50.058;8.688;2023-01-29T14:51:16;101243.06;;;6.13;46.54
3748;BME280;1889;50.058;8.688;2023-01-29T14:54:00;101241.60;;;6.29;46.02
3748;BME280;1889;50.058;8.688;2023-01-29T14:56:35;101234.08;;;6.75;45.37
3748;BME280;1889;50.058;8.688;2023-01-29T14:59:19;101234.52;;;7.03;44.71
3748;BME280;1889;50.058;8.688;2023-01-29T15:01:54;101236.59;;;6.96;44.72
3748;BME280;1889;50.058;8.688;2023-01-29T15:04:27;101235.42;;;7.06;44.76
3748;BME280;1889;50.058;8.688;2023-01-29T15:07:00;101232.75;;;6.72;44.48
3748;BME280;1889;50.058;8.688;2023-01-29T15:09:38;101231.62;;;7.15;44.82
3748;BME280;1889;50.058;8.688;2023-01-29T15:12:25;101224.52;;;7.36;44.25
3748;BME280;1889;50.058;8.688;2023-01-29T15:15:16;101223.70;;;7.42;43.81
3748;BME280;1889;50.058;8.688;2023-01-29T15:18:11;101213.25;;;7.43;43.79
3748;BME280;1889;50.058;8.688;2023-01-29T15:20:40;101208.33;;;6.72;44.83